| Servicio Meteorologico Nacional.

Pronóstico antártico

Pronóstico antártico

TAF Marambio
 

FTAA SAWB 181100
TAF SAWB 181100Z 1812/1912 23025G35KT 0100 -SN BLSN OVC001
TXM04/1812Z TNM08/1903Z
BECMG 1816/1818 3000 DRSN SCT003
BECMG 1818/1820 23020G30KT CAVOK
BECMG 1822/1824 23015KT
BECMG 1904/1906 05010KT =